createdAt,value
2022-11-29T00:01:17.291Z,57.40
2022-11-29T00:03:45.287Z,50.88
2022-11-29T00:06:15.889Z,55.67
2022-11-29T00:08:45.249Z,53.83
2022-11-29T00:11:35.159Z,51.10
2022-11-29T00:14:03.232Z,55.92
2022-11-29T00:16:31.663Z,56.72
2022-11-29T00:18:59.558Z,57.15
2022-11-29T00:21:27.493Z,51.95
2022-11-29T00:23:56.789Z,51.58
2022-11-29T00:26:25.181Z,50.60
2022-11-29T00:28:53.303Z,52.15
2022-11-29T00:31:22.741Z,50.40
2022-11-29T00:33:51.336Z,62.17
2022-11-29T00:36:20.408Z,54.47
2022-11-29T00:38:48.317Z,51.30
2022-11-29T00:41:17.677Z,54.72
2022-11-29T00:43:45.764Z,56.53
2022-11-29T00:46:13.847Z,51.92
2022-11-29T00:48:41.957Z,54.75
2022-11-29T00:51:09.849Z,53.33
2022-11-29T00:53:39.291Z,57.13
2022-11-29T00:56:08.460Z,56.47
2022-11-29T00:58:38.404Z,56.00
2022-11-29T01:01:07.140Z,53.85
2022-11-29T01:03:35.129Z,56.88
2022-11-29T01:06:04.849Z,57.03
2022-11-29T01:08:32.949Z,57.13
2022-11-29T01:11:09.545Z,53.03
2022-11-29T01:13:38.998Z,58.78
2022-11-29T01:16:08.044Z,54.17
2022-11-29T01:18:37.115Z,63.67
2022-11-29T01:21:07.214Z,59.28
2022-11-29T01:23:36.477Z,67.35
2022-11-29T01:26:07.308Z,60.70
2022-11-29T01:28:35.728Z,61.70
2022-11-29T01:31:08.781Z,60.75
2022-11-29T01:33:37.010Z,63.55
2022-11-29T01:36:07.317Z,59.65
2022-11-29T01:38:36.243Z,57.17
2022-11-29T01:41:08.379Z,61.22
2022-11-29T01:43:56.638Z,56.88
2022-11-29T01:46:27.090Z,65.45
2022-11-29T01:48:58.645Z,63.35
2022-11-29T01:51:27.936Z,63.38
2022-11-29T01:53:56.484Z,66.85
2022-11-29T01:56:25.674Z,61.97
2022-11-29T01:58:53.662Z,55.60
2022-11-29T02:01:21.558Z,59.30
2022-11-29T02:03:51.090Z,62.83
2022-11-29T02:06:19.486Z,59.30
2022-11-29T02:08:48.084Z,63.55
2022-11-29T02:11:37.294Z,66.13
2022-11-29T02:14:22.736Z,71.13
2022-11-29T02:16:59.037Z,63.03
2022-11-29T02:19:50.744Z,63.55
2022-11-29T02:22:25.552Z,59.13
2022-11-29T02:25:14.229Z,62.50
2022-11-29T02:28:36.793Z,63.83
2022-11-29T02:31:40.142Z,66.45
2022-11-29T02:34:32.114Z,68.28
2022-11-29T02:37:20.453Z,62.50
2022-11-29T02:40:03.229Z,61.97
2022-11-29T02:43:08.482Z,60.90
2022-11-29T02:46:05.351Z,64.95
2022-11-29T02:48:56.941Z,59.17
2022-11-29T02:51:36.418Z,59.28
2022-11-29T02:54:12.101Z,55.13
2022-11-29T02:56:47.832Z,61.40
2022-11-29T02:59:28.758Z,56.92
2022-11-29T03:02:04.236Z,58.42
2022-11-29T03:04:39.796Z,61.28
2022-11-29T03:07:16.668Z,58.53
2022-11-29T03:09:50.262Z,63.78
2022-11-29T03:12:28.512Z,58.38
2022-11-29T03:15:04.078Z,64.65
2022-11-29T03:17:42.014Z,59.75
2022-11-29T03:20:27.032Z,59.40
2022-11-29T03:23:15.105Z,56.10
2022-11-29T03:25:47.217Z,54.80
2022-11-29T03:28:19.859Z,59.17
2022-11-29T03:30:56.449Z,59.03
2022-11-29T03:33:33.030Z,67.47
2022-11-29T03:36:08.706Z,63.65
2022-11-29T03:38:41.631Z,60.15
2022-11-29T03:41:21.246Z,55.08
2022-11-29T03:43:56.182Z,53.03
2022-11-29T03:46:33.472Z,56.15
2022-11-29T03:49:05.122Z,59.35
2022-11-29T03:51:48.023Z,56.72
2022-11-29T03:54:23.713Z,57.65
2022-11-29T03:56:52.263Z,53.67
2022-11-29T03:59:32.813Z,54.92
2022-11-29T04:02:37.263Z,54.90
2022-11-29T04:05:46.079Z,56.60
2022-11-29T04:08:44.083Z,53.45
2022-11-29T04:11:54.949Z,50.88
2022-11-29T04:14:57.709Z,56.33
2022-11-29T04:17:53.945Z,58.40
2022-11-29T04:20:54.482Z,51.22
2022-11-29T04:24:07.149Z,51.53
2022-11-29T04:27:15.280Z,53.97
2022-11-29T04:30:04.871Z,50.67
2022-11-29T04:33:13.872Z,55.20
2022-11-29T04:35:57.145Z,52.83
2022-11-29T04:38:50.454Z,49.08
2022-11-29T04:41:59.299Z,52.53
2022-11-29T04:44:55.637Z,54.20
2022-11-29T04:47:43.732Z,52.15
2022-11-29T04:50:24.170Z,53.67
2022-11-29T04:53:21.774Z,55.53
2022-11-29T04:55:57.905Z,52.33
2022-11-29T04:58:36.311Z,53.70
2022-11-29T05:01:15.978Z,59.22
2022-11-29T05:03:56.747Z,58.47
2022-11-29T05:06:30.397Z,54.10
2022-11-29T05:09:08.168Z,55.60
2022-11-29T05:11:50.698Z,53.15
2022-11-29T05:14:32.548Z,52.28
2022-11-29T05:17:20.252Z,56.45
2022-11-29T05:20:02.405Z,55.83
2022-11-29T05:22:37.127Z,57.55
2022-11-29T05:25:26.292Z,52.83
2022-11-29T05:27:59.195Z,45.75
2022-11-29T05:30:41.665Z,53.80
2022-11-29T05:33:23.356Z,45.95
2022-11-29T05:35:55.857Z,53.58
2022-11-29T05:38:56.614Z,54.17
2022-11-29T05:41:42.616Z,50.35
2022-11-29T05:44:16.147Z,51.28
2022-11-29T05:46:55.262Z,46.40
2022-11-29T05:49:34.634Z,51.67
2022-11-29T05:52:19.397Z,47.80
2022-11-29T05:55:00.126Z,52.00
2022-11-29T05:57:37.387Z,46.22
2022-11-29T06:00:07.777Z,52.58
2022-11-29T06:02:50.115Z,49.58
2022-11-29T06:05:27.132Z,49.72
2022-11-29T06:08:00.362Z,51.40
2022-11-29T06:10:32.992Z,52.30
2022-11-29T06:13:12.723Z,53.65
2022-11-29T06:16:17.452Z,53.58
2022-11-29T06:19:20.905Z,52.22
2022-11-29T06:21:59.476Z,48.97
2022-11-29T06:24:46.567Z,54.75
2022-11-29T06:27:41.855Z,57.30
2022-11-29T06:30:12.403Z,55.60
2022-11-29T06:32:50.551Z,55.03
2022-11-29T06:35:36.944Z,52.63
2022-11-29T06:38:10.857Z,57.13
2022-11-29T06:40:39.302Z,55.03
2022-11-29T06:43:07.765Z,53.40
2022-11-29T06:45:36.159Z,48.72
2022-11-29T06:48:06.111Z,54.88
2022-11-29T06:50:47.632Z,51.60
2022-11-29T06:53:23.562Z,55.38
2022-11-29T06:55:59.869Z,53.10
2022-11-29T06:58:43.980Z,49.22
2022-11-29T07:01:20.695Z,48.33
2022-11-29T07:04:06.836Z,54.13
2022-11-29T07:06:37.262Z,53.58
2022-11-29T07:09:14.407Z,48.55
2022-11-29T07:11:42.855Z,50.10
2022-11-29T07:14:11.176Z,51.97
2022-11-29T07:16:53.159Z,52.42
2022-11-29T07:19:35.108Z,55.33
2022-11-29T07:22:10.311Z,53.58
2022-11-29T07:24:52.107Z,46.85
2022-11-29T07:27:24.907Z,50.58
2022-11-29T07:30:07.721Z,51.22
2022-11-29T07:32:51.440Z,52.33
2022-11-29T07:35:31.412Z,52.20
2022-11-29T07:38:11.108Z,55.15
2022-11-29T07:40:47.276Z,47.95
2022-11-29T07:43:26.140Z,48.97
2022-11-29T07:45:54.979Z,50.42
2022-11-29T07:48:22.827Z,53.25
2022-11-29T07:50:50.946Z,52.83
2022-11-29T07:53:22.908Z,50.50
2022-11-29T07:55:51.362Z,48.20
2022-11-29T07:58:21.065Z,52.38
2022-11-29T08:00:49.059Z,52.33
2022-11-29T08:03:16.903Z,43.85
2022-11-29T08:05:48.137Z,47.13
2022-11-29T08:08:16.658Z,52.08
2022-11-29T08:10:46.605Z,52.30
2022-11-29T08:13:15.693Z,43.38
2022-11-29T08:15:46.991Z,48.25
2022-11-29T08:18:15.285Z,54.47
2022-11-29T08:20:43.728Z,44.80
2022-11-29T08:23:13.816Z,44.05
2022-11-29T08:25:41.848Z,47.75
2022-11-29T08:28:11.183Z,51.17
2022-11-29T08:30:39.594Z,41.67
2022-11-29T08:33:07.659Z,46.33
2022-11-29T08:35:36.909Z,46.55
2022-11-29T08:38:05.107Z,43.80
2022-11-29T08:40:33.257Z,45.10
2022-11-29T08:43:01.146Z,45.67
2022-11-29T08:45:30.474Z,44.55
2022-11-29T08:47:58.354Z,45.28
2022-11-29T08:50:26.217Z,42.95
2022-11-29T08:53:11.710Z,41.13
2022-11-29T08:55:42.873Z,41.00
2022-11-29T08:58:13.638Z,47.65
2022-11-29T09:00:45.570Z,41.95
2022-11-29T09:03:31.068Z,46.33
2022-11-29T09:06:00.405Z,44.15
2022-11-29T09:08:28.256Z,40.95
2022-11-29T09:10:56.105Z,41.92
2022-11-29T09:13:23.934Z,39.92
2022-11-29T09:15:53.169Z,40.80
2022-11-29T09:18:22.733Z,41.08
2022-11-29T09:20:50.669Z,39.33
2022-11-29T09:23:18.525Z,40.53
2022-11-29T09:25:49.756Z,42.92
2022-11-29T09:28:17.683Z,46.17
2022-11-29T09:30:45.693Z,40.60
2022-11-29T09:33:14.924Z,43.78
2022-11-29T09:35:42.969Z,41.80
2022-11-29T09:38:12.254Z,42.83
2022-11-29T09:40:46.691Z,44.15
2022-11-29T09:43:25.124Z,40.50
2022-11-29T09:46:01.566Z,42.95
2022-11-29T09:48:43.882Z,43.53
2022-11-29T09:51:22.530Z,40.40
2022-11-29T09:54:07.563Z,41.47
2022-11-29T09:56:39.842Z,42.45
2022-11-29T09:59:12.902Z,40.47
2022-11-29T10:01:45.196Z,41.13
2022-11-29T10:04:18.664Z,38.10
2022-11-29T10:06:53.090Z,41.35
2022-11-29T10:09:29.566Z,43.28
2022-11-29T10:12:08.386Z,46.03
2022-11-29T10:14:45.416Z,45.40
2022-11-29T10:17:26.102Z,40.80
2022-11-29T10:19:59.816Z,42.08
2022-11-29T10:22:37.695Z,42.78
2022-11-29T10:25:10.382Z,45.10
2022-11-29T10:27:41.636Z,47.60
2022-11-29T10:30:15.085Z,42.20
2022-11-29T10:32:45.501Z,39.40
2022-11-29T10:35:18.289Z,43.88
2022-11-29T10:38:07.619Z,39.00
2022-11-29T10:40:37.201Z,38.05
2022-11-29T10:43:05.330Z,41.38
2022-11-29T10:45:37.780Z,41.33
2022-11-29T10:48:09.155Z,40.78
2022-11-29T10:50:42.755Z,40.33
2022-11-29T10:53:13.393Z,36.72
2022-11-29T10:55:45.225Z,43.58
2022-11-29T10:58:22.091Z,42.60
2022-11-29T11:00:56.711Z,37.55
2022-11-29T11:03:30.462Z,36.83
2022-11-29T11:06:07.597Z,38.97
2022-11-29T11:08:36.981Z,40.25
2022-11-29T11:11:07.758Z,35.72
2022-11-29T11:13:37.543Z,41.35
2022-11-29T11:16:17.842Z,43.25
2022-11-29T11:18:47.038Z,40.45
2022-11-29T11:21:19.177Z,42.92
2022-11-29T11:23:54.235Z,40.00
2022-11-29T11:26:22.899Z,39.55
2022-11-29T11:28:54.586Z,46.70
2022-11-29T11:31:32.785Z,41.30
2022-11-29T11:34:25.396Z,40.88
2022-11-29T11:36:55.111Z,40.08
2022-11-29T11:39:24.489Z,39.70
2022-11-29T11:42:10.899Z,44.05
2022-11-29T11:44:49.328Z,37.55
2022-11-29T11:47:20.633Z,40.63
2022-11-29T11:49:51.612Z,39.00
2022-11-29T11:52:24.155Z,40.03
2022-11-29T11:54:55.666Z,33.50
2022-11-29T11:57:25.894Z,38.90
2022-11-29T11:59:55.616Z,40.08
2022-11-29T12:02:29.106Z,37.03
2022-11-29T12:05:00.013Z,39.85
2022-11-29T12:08:06.329Z,40.20
2022-11-29T12:10:25.782Z,40.38
2022-11-29T12:12:55.998Z,40.13
2022-11-29T12:15:29.567Z,38.00
2022-11-29T12:18:03.022Z,38.20
2022-11-29T12:20:35.076Z,43.80
2022-11-29T12:23:23.067Z,38.17
2022-11-29T12:25:55.840Z,44.38
2022-11-29T12:28:28.314Z,44.50
2022-11-29T12:31:16.337Z,42.50
2022-11-29T12:33:50.889Z,44.15
2022-11-29T12:36:30.045Z,43.17
2022-11-29T12:39:22.659Z,40.30
2022-11-29T12:41:57.312Z,47.47
2022-11-29T12:44:40.916Z,49.70
2022-11-29T12:47:37.711Z,41.58
2022-11-29T12:50:21.719Z,46.17
2022-11-29T12:53:02.330Z,42.05
2022-11-29T12:55:42.562Z,57.60
2022-11-29T12:58:16.490Z,44.45
2022-11-29T13:01:01.851Z,45.03
2022-11-29T13:03:34.017Z,43.15
2022-11-29T13:06:15.888Z,41.45
2022-11-29T13:08:59.180Z,45.25
2022-11-29T13:11:31.573Z,41.60
2022-11-29T13:14:34.778Z,46.88
2022-11-29T13:17:00.050Z,47.53
2022-11-29T13:19:34.664Z,48.85
2022-11-29T13:22:11.501Z,44.38
2022-11-29T13:24:44.176Z,42.85
2022-11-29T13:27:19.513Z,50.72
2022-11-29T13:29:48.127Z,48.22
2022-11-29T13:32:29.120Z,55.90
2022-11-29T13:35:01.991Z,44.55
2022-11-29T13:37:36.903Z,46.80
2022-11-29T13:40:22.869Z,52.90
2022-11-29T13:43:02.381Z,48.60
2022-11-29T13:45:38.234Z,50.88
2022-11-29T13:48:34.911Z,44.70
2022-11-29T13:51:41.437Z,47.65
2022-11-29T13:54:29.376Z,52.15
2022-11-29T13:57:09.091Z,47.55
2022-11-29T13:59:47.299Z,53.05
2022-11-29T14:02:29.697Z,49.15
2022-11-29T14:04:57.761Z,57.72
2022-11-29T14:07:25.696Z,55.42
2022-11-29T14:10:00.314Z,53.05
2022-11-29T14:12:39.529Z,51.65
2022-11-29T14:15:24.126Z,60.47
2022-11-29T14:17:55.160Z,52.20
2022-11-29T14:20:57.018Z,53.13
2022-11-29T14:23:42.064Z,55.85
2022-11-29T14:26:30.581Z,63.88
2022-11-29T14:28:59.638Z,52.78
2022-11-29T14:31:52.455Z,53.55
2022-11-29T14:34:33.477Z,55.65
2022-11-29T14:37:15.593Z,53.28
2022-11-29T14:39:47.042Z,52.65
2022-11-29T14:42:18.768Z,54.17
2022-11-29T14:44:52.938Z,56.20
2022-11-29T14:47:31.451Z,55.22
2022-11-29T14:50:03.855Z,60.15
2022-11-29T14:52:37.107Z,63.40
2022-11-29T14:55:09.329Z,57.40
2022-11-29T14:58:16.818Z,61.33
2022-11-29T15:01:10.881Z,55.83
2022-11-29T15:03:50.766Z,63.13
2022-11-29T15:06:26.380Z,61.95
2022-11-29T15:09:00.512Z,64.13
2022-11-29T15:11:36.998Z,56.47
2022-11-29T15:14:08.011Z,59.45
2022-11-29T15:17:12.375Z,62.00
2022-11-29T15:20:17.879Z,59.40
2022-11-29T15:22:52.372Z,58.88
2022-11-29T15:25:22.427Z,64.07
2022-11-29T15:27:54.674Z,62.45
2022-11-29T15:30:30.771Z,64.38
2022-11-29T15:33:00.099Z,69.00
2022-11-29T15:35:29.767Z,73.75
2022-11-29T15:37:58.085Z,70.30
2022-11-29T15:40:34.451Z,71.95
2022-11-29T15:43:14.869Z,67.05
2022-11-29T15:45:48.257Z,69.18
2022-11-29T15:48:22.209Z,67.03
2022-11-29T15:51:12.304Z,68.15
2022-11-29T15:53:47.175Z,72.40
2022-11-29T15:56:20.162Z,75.72
2022-11-29T15:58:51.075Z,80.30
2022-11-29T16:01:22.378Z,78.30
2022-11-29T16:03:53.435Z,78.85
2022-11-29T16:06:29.880Z,71.05
2022-11-29T16:08:57.978Z,76.18
2022-11-29T16:11:29.131Z,80.97
2022-11-29T16:14:05.331Z,67.53
2022-11-29T16:16:35.649Z,77.18
2022-11-29T16:19:11.915Z,75.43
2022-11-29T16:21:44.622Z,70.38
2022-11-29T16:24:14.660Z,68.20
2022-11-29T16:26:45.123Z,76.88
2022-11-29T16:29:24.461Z,70.93
2022-11-29T16:31:53.481Z,73.03
2022-11-29T16:34:27.563Z,75.07
2022-11-29T16:37:05.640Z,69.82
2022-11-29T16:39:35.155Z,71.20
2022-11-29T16:42:08.089Z,69.57
2022-11-29T16:45:27.775Z,69.00
2022-11-29T16:47:58.990Z,72.20
2022-11-29T16:50:29.558Z,70.05
2022-11-29T16:53:35.278Z,74.82
2022-11-29T16:56:03.339Z,69.63
2022-11-29T16:58:31.681Z,65.93
2022-11-29T17:00:59.742Z,66.82
2022-11-29T17:03:27.658Z,70.07
2022-11-29T17:05:55.516Z,72.13
2022-11-29T17:08:24.808Z,72.03
2022-11-29T17:10:52.646Z,71.50
2022-11-29T17:13:20.503Z,66.35
2022-11-29T17:15:48.390Z,66.80
2022-11-29T17:18:16.394Z,67.75
2022-11-29T17:20:44.235Z,64.15
2022-11-29T17:23:13.530Z,70.00
2022-11-29T17:25:42.794Z,73.55
2022-11-29T17:28:11.140Z,74.90
2022-11-29T17:30:39.038Z,69.88
2022-11-29T17:33:06.864Z,71.22
2022-11-29T17:35:36.318Z,64.72
2022-11-29T17:38:04.341Z,73.68
2022-11-29T17:40:32.209Z,75.07
2022-11-29T17:43:01.533Z,70.95
2022-11-29T17:45:29.359Z,70.25
2022-11-29T17:47:59.656Z,76.57
2022-11-29T17:50:27.535Z,65.47
2022-11-29T17:52:55.396Z,72.95
2022-11-29T17:55:26.965Z,63.92
2022-11-29T17:57:57.322Z,77.40
2022-11-29T18:00:27.080Z,69.05
2022-11-29T18:02:54.948Z,72.43
2022-11-29T18:05:23.058Z,74.20
2022-11-29T18:08:00.153Z,65.75
2022-11-29T18:10:29.222Z,68.63
2022-11-29T18:12:57.576Z,72.07
2022-11-29T18:15:26.854Z,68.63
2022-11-29T18:17:55.014Z,65.82
2022-11-29T18:20:22.855Z,65.85
2022-11-29T18:22:50.721Z,63.10
2022-11-29T18:25:38.302Z,64.95
2022-11-29T18:28:08.679Z,66.90
2022-11-29T18:30:38.009Z,70.47
2022-11-29T18:33:05.928Z,71.82
2022-11-29T18:35:33.758Z,69.15
2022-11-29T18:38:16.981Z,67.70
2022-11-29T18:40:46.232Z,62.25
2022-11-29T18:43:16.556Z,62.38
2022-11-29T18:45:45.842Z,65.43
2022-11-29T18:48:13.908Z,62.47
2022-11-29T18:50:41.763Z,64.25
2022-11-29T18:53:09.577Z,62.38
2022-11-29T18:55:37.414Z,67.65
2022-11-29T18:58:06.666Z,73.72
2022-11-29T19:00:34.628Z,67.90
2022-11-29T19:03:03.909Z,74.50
2022-11-29T19:05:31.772Z,71.05
2022-11-29T19:07:59.689Z,63.58
2022-11-29T19:10:27.571Z,67.72
2022-11-29T19:12:55.737Z,69.18
2022-11-29T19:15:23.578Z,69.75
2022-11-29T19:17:51.460Z,65.45
2022-11-29T19:20:20.712Z,69.03
2022-11-29T19:22:48.906Z,67.85
2022-11-29T19:25:16.914Z,67.65
2022-11-29T19:27:45.390Z,62.83
2022-11-29T19:30:15.499Z,65.95
2022-11-29T19:32:43.837Z,67.70
2022-11-29T19:35:11.656Z,66.97
2022-11-29T19:37:42.040Z,67.80
2022-11-29T19:40:10.355Z,69.22
2022-11-29T19:42:38.183Z,63.95
2022-11-29T19:45:16.861Z,65.53
2022-11-29T19:47:45.776Z,67.60
2022-11-29T19:50:13.598Z,59.20
2022-11-29T19:52:42.980Z,66.30
2022-11-29T19:55:11.087Z,70.47
2022-11-29T19:57:39.495Z,67.53
2022-11-29T20:00:08.613Z,65.18
2022-11-29T20:02:36.546Z,70.95
2022-11-29T20:05:04.538Z,64.53
2022-11-29T20:07:32.452Z,68.45
2022-11-29T20:10:01.730Z,64.57
2022-11-29T20:12:32.321Z,65.03
2022-11-29T20:15:01.015Z,63.83
2022-11-29T20:17:29.082Z,67.07
2022-11-29T20:19:57.063Z,65.50
2022-11-29T20:22:24.936Z,67.53
2022-11-29T20:24:54.423Z,63.67
2022-11-29T20:27:23.910Z,73.65
2022-11-29T20:29:51.841Z,64.65
2022-11-29T20:32:20.316Z,69.32
2022-11-29T20:34:49.028Z,59.30
2022-11-29T20:37:39.457Z,63.05
2022-11-29T20:40:12.721Z,70.25
2022-11-29T20:42:51.523Z,70.07
2022-11-29T20:45:20.072Z,60.13
2022-11-29T20:47:54.974Z,62.83
2022-11-29T20:50:25.203Z,62.08
2022-11-29T20:53:13.822Z,61.67
2022-11-29T20:55:47.746Z,68.20
2022-11-29T20:58:19.475Z,62.25
2022-11-29T21:00:47.864Z,64.05
2022-11-29T21:03:16.259Z,64.88
2022-11-29T21:05:44.898Z,64.63
2022-11-29T21:08:13.482Z,69.88
2022-11-29T21:10:41.449Z,57.83
2022-11-29T21:13:12.425Z,66.80
2022-11-29T21:15:42.414Z,62.13
2022-11-29T21:18:20.943Z,59.28
2022-11-29T21:20:58.423Z,57.78
2022-11-29T21:23:35.586Z,60.33
2022-11-29T21:26:09.439Z,57.78
2022-11-29T21:28:42.764Z,60.83
2022-11-29T21:31:17.735Z,59.58
2022-11-29T21:33:46.186Z,52.45
2022-11-29T21:36:14.673Z,58.65
2022-11-29T21:38:42.769Z,61.17
2022-11-29T21:41:10.608Z,56.20
2022-11-29T21:44:04.877Z,51.88
2022-11-29T21:46:27.709Z,60.05
2022-11-29T21:48:55.658Z,61.33
2022-11-29T21:51:23.593Z,59.28
2022-11-29T21:53:51.582Z,58.72
2022-11-29T21:56:19.621Z,58.03
2022-11-29T21:58:47.444Z,54.63
2022-11-29T22:01:18.043Z,60.08
2022-11-29T22:03:47.763Z,63.90
2022-11-29T22:06:18.311Z,59.40
2022-11-29T22:08:46.292Z,56.47
2022-11-29T22:11:16.445Z,54.97
2022-11-29T22:13:59.395Z,55.53
2022-11-29T22:16:27.622Z,55.65
2022-11-29T22:18:57.020Z,59.25
2022-11-29T22:21:24.885Z,53.42
2022-11-29T22:23:53.498Z,55.08
2022-11-29T22:26:21.425Z,52.90
2022-11-29T22:28:49.376Z,55.80
2022-11-29T22:31:17.287Z,57.65
2022-11-29T22:33:45.132Z,57.13
2022-11-29T22:36:14.556Z,52.28
2022-11-29T22:38:42.412Z,57.63
2022-11-29T22:41:12.958Z,56.80
2022-11-29T22:43:42.106Z,50.90
2022-11-29T22:46:11.796Z,50.65
2022-11-29T22:48:40.834Z,52.45
2022-11-29T22:51:10.298Z,55.80
2022-11-29T22:53:41.843Z,61.33
2022-11-29T22:56:11.990Z,53.58
2022-11-29T22:58:40.029Z,57.17
2022-11-29T23:01:10.638Z,57.95
2022-11-29T23:03:40.071Z,60.78
2022-11-29T23:06:09.621Z,63.60
2022-11-29T23:08:39.778Z,65.97
2022-11-29T23:11:09.290Z,57.75
2022-11-29T23:13:39.437Z,59.95
2022-11-29T23:16:10.688Z,59.53
2022-11-29T23:18:39.996Z,63.97
2022-11-29T23:21:10.078Z,64.32
2022-11-29T23:23:39.395Z,67.47
2022-11-29T23:26:08.726Z,65.43
2022-11-29T23:28:37.277Z,65.95
2022-11-29T23:31:05.135Z,56.78
2022-11-29T23:33:33.015Z,61.13
2022-11-29T23:36:02.531Z,60.42
2022-11-29T23:38:30.469Z,65.28
2022-11-29T23:41:00.019Z,64.80
2022-11-29T23:43:30.551Z,55.22
2022-11-29T23:45:58.496Z,56.00
2022-11-29T23:48:27.027Z,61.30
2022-11-29T23:50:54.928Z,62.13
2022-11-29T23:53:22.998Z,63.53
2022-11-29T23:55:57.513Z,56.92
2022-11-29T23:58:27.360Z,61.30
